createdAt,value
2018-09-12T00:01:07.018Z,3.73
2018-09-12T00:03:35.398Z,3.10
2018-09-12T00:06:03.944Z,2.50
2018-09-12T00:08:32.374Z,2.40
2018-09-12T00:11:00.768Z,1.70
2018-09-12T00:13:29.182Z,2.03
2018-09-12T00:15:57.924Z,2.30
2018-09-12T00:18:26.410Z,1.30
2018-09-12T00:20:54.959Z,1.30
2018-09-12T00:23:23.400Z,1.33
2018-09-12T00:25:51.854Z,1.10
2018-09-12T00:28:20.290Z,1.13
2018-09-12T00:30:48.874Z,1.10
2018-09-12T00:33:17.407Z,0.87
2018-09-12T00:35:45.938Z,1.20
2018-09-12T00:38:14.424Z,1.00
2018-09-12T00:40:43.017Z,1.20
2018-09-12T00:43:11.891Z,1.20
2018-09-12T00:45:40.392Z,1.30
2018-09-12T00:48:09.006Z,1.50
2018-09-12T00:50:37.595Z,1.80
2018-09-12T00:53:06.111Z,1.23
2018-09-12T00:55:34.564Z,1.20
2018-09-12T00:58:03.050Z,1.50
2018-09-12T01:00:31.572Z,1.33
2018-09-12T01:03:00.452Z,1.20
2018-09-12T01:05:28.868Z,1.30
2018-09-12T01:07:58.332Z,0.97
2018-09-12T01:10:26.759Z,0.70
2018-09-12T01:12:55.234Z,0.80
2018-09-12T01:15:23.636Z,0.73
2018-09-12T01:17:52.115Z,0.70
2018-09-12T01:20:21.527Z,0.50
2018-09-12T01:22:50.149Z,0.63
2018-09-12T01:25:18.733Z,0.47
2018-09-12T01:27:51.399Z,0.60
2018-09-12T01:30:24.077Z,0.70
2018-09-12T01:32:53.810Z,0.60
2018-09-12T01:35:22.583Z,0.57
2018-09-12T01:37:50.931Z,1.00
2018-09-12T01:40:19.430Z,0.70
2018-09-12T01:42:47.922Z,0.83
2018-09-12T01:45:18.983Z,0.97
2018-09-12T01:47:48.982Z,0.70
2018-09-12T01:50:18.123Z,1.23
2018-09-12T01:52:47.635Z,1.13
2018-09-12T01:55:16.372Z,1.03
2018-09-12T01:57:44.821Z,0.97
2018-09-12T02:00:18.244Z,1.17
2018-09-12T02:02:48.428Z,1.17
2018-09-12T02:05:17.005Z,1.23
2018-09-12T02:07:45.329Z,1.13
2018-09-12T02:10:13.723Z,1.20
2018-09-12T02:12:42.213Z,1.23
2018-09-12T02:15:10.776Z,1.53
2018-09-12T02:17:39.151Z,1.70
2018-09-12T02:20:07.783Z,1.80
2018-09-12T02:22:36.420Z,1.60
2018-09-12T02:25:04.951Z,1.60
2018-09-12T02:27:33.398Z,1.77
2018-09-12T02:30:01.938Z,1.57
2018-09-12T02:32:30.385Z,1.20
2018-09-12T02:34:58.823Z,1.37
2018-09-12T02:37:27.330Z,1.40
2018-09-12T02:39:55.741Z,1.47
2018-09-12T02:42:24.316Z,1.60
2018-09-12T02:44:52.856Z,1.30
2018-09-12T02:47:26.492Z,1.40
2018-09-12T02:49:54.910Z,1.47
2018-09-12T02:52:23.409Z,1.50
2018-09-12T02:54:51.867Z,1.50
2018-09-12T02:57:20.298Z,1.53
2018-09-12T02:59:48.726Z,1.30
2018-09-12T03:02:17.334Z,1.47
2018-09-12T03:04:45.803Z,1.07
2018-09-12T03:07:14.167Z,1.30
2018-09-12T03:09:42.492Z,1.20
2018-09-12T03:12:10.743Z,1.40
2018-09-12T03:14:39.157Z,1.30
2018-09-12T03:17:07.488Z,1.30
2018-09-12T03:19:35.990Z,1.27
2018-09-12T03:22:04.558Z,1.20
2018-09-12T03:24:32.995Z,1.40
2018-09-12T03:27:01.452Z,1.37
2018-09-12T03:29:29.882Z,1.33
2018-09-12T03:31:58.244Z,1.40
2018-09-12T03:34:26.620Z,1.10
2018-09-12T03:36:55.116Z,1.17
2018-09-12T03:39:23.620Z,1.70
2018-09-12T03:41:52.138Z,1.30
2018-09-12T03:44:20.548Z,1.33
2018-09-12T03:46:48.842Z,1.43
2018-09-12T03:49:17.264Z,1.73
2018-09-12T03:51:45.748Z,1.37
2018-09-12T03:54:14.122Z,1.77
2018-09-12T03:56:42.643Z,1.97
2018-09-12T03:59:11.075Z,1.93
2018-09-12T04:01:39.494Z,2.13
2018-09-12T04:04:07.911Z,2.07
2018-09-12T04:06:36.425Z,1.77
2018-09-12T04:09:06.940Z,2.10
2018-09-12T04:11:35.448Z,1.80
2018-09-12T04:14:04.178Z,1.90
2018-09-12T04:16:32.685Z,1.87
2018-09-12T04:19:01.092Z,1.67
2018-09-12T04:21:29.598Z,1.93
2018-09-12T04:23:58.041Z,2.03
2018-09-12T04:26:26.581Z,1.70
2018-09-12T04:28:55.040Z,1.90
2018-09-12T04:31:23.394Z,1.60
2018-09-12T04:33:51.808Z,2.23
2018-09-12T04:36:20.177Z,1.80
2018-09-12T04:38:48.611Z,2.17
2018-09-12T04:41:16.982Z,2.00
2018-09-12T04:43:45.368Z,2.00
2018-09-12T04:46:13.774Z,2.47
2018-09-12T04:48:42.919Z,1.83
2018-09-12T04:51:11.330Z,1.93
2018-09-12T04:53:40.042Z,1.27
2018-09-12T04:56:08.434Z,1.97
2018-09-12T04:58:37.058Z,1.90
2018-09-12T05:01:05.490Z,2.00
2018-09-12T05:03:33.958Z,1.90
2018-09-12T05:06:02.430Z,2.30
2018-09-12T05:08:30.794Z,1.73
2018-09-12T05:10:59.182Z,2.33
2018-09-12T05:13:27.534Z,2.13
2018-09-12T05:15:56.056Z,2.50
2018-09-12T05:18:24.480Z,2.17
2018-09-12T05:20:52.924Z,2.37
2018-09-12T05:23:21.366Z,1.90
2018-09-12T05:25:49.954Z,1.90
2018-09-12T05:28:18.485Z,2.23
2018-09-12T05:30:46.913Z,1.87
2018-09-12T05:33:15.340Z,2.23
2018-09-12T05:35:43.717Z,2.20
2018-09-12T05:38:12.169Z,1.80
2018-09-12T05:40:40.763Z,2.23
2018-09-12T05:43:10.310Z,2.10
2018-09-12T05:48:57.546Z,2.50
2018-09-12T05:51:46.615Z,2.70
2018-09-12T05:54:20.745Z,2.57
2018-09-12T05:57:00.124Z,2.70
2018-09-12T05:59:35.478Z,2.67
2018-09-12T06:02:05.064Z,2.83
2018-09-12T06:04:34.361Z,2.97
2018-09-12T06:07:03.394Z,2.50
2018-09-12T06:09:31.910Z,2.43
2018-09-12T06:12:00.264Z,2.30
2018-09-12T06:14:29.109Z,2.33
2018-09-12T06:16:57.893Z,2.00
2018-09-12T06:19:26.438Z,1.93
2018-09-12T06:21:54.862Z,1.63
2018-09-12T06:24:23.532Z,2.47
2018-09-12T06:26:52.010Z,2.47
2018-09-12T06:29:20.434Z,2.53
2018-09-12T06:31:49.118Z,2.00
2018-09-12T06:34:17.594Z,2.27
2018-09-12T06:36:46.872Z,2.17
2018-09-12T06:39:15.607Z,2.57
2018-09-12T06:41:43.935Z,2.40
2018-09-12T06:44:12.399Z,1.93
2018-09-12T06:46:41.172Z,1.93
2018-09-12T06:49:09.813Z,2.50
2018-09-12T06:51:38.365Z,2.37
2018-09-12T06:54:06.842Z,2.43
2018-09-12T06:56:35.559Z,2.53
2018-09-12T06:59:04.054Z,2.40
2018-09-12T07:01:32.572Z,2.43
2018-09-12T07:04:01.134Z,2.37
2018-09-12T07:06:29.562Z,2.30
2018-09-12T07:08:58.013Z,2.50
2018-09-12T07:11:26.470Z,2.43
2018-09-12T07:13:54.840Z,2.07
2018-09-12T07:16:23.566Z,2.47
2018-09-12T07:18:52.131Z,2.80
2018-09-12T07:21:20.548Z,2.40
2018-09-12T07:23:49.051Z,2.50
2018-09-12T07:26:17.489Z,3.10
2018-09-12T07:28:45.967Z,3.23
2018-09-12T07:31:14.626Z,2.53
2018-09-12T07:33:43.158Z,2.40
2018-09-12T07:36:11.628Z,2.70
2018-09-12T07:38:40.331Z,3.40
2018-09-12T07:41:08.798Z,2.80
2018-09-12T07:43:37.697Z,2.60
2018-09-12T07:46:06.795Z,2.97
2018-09-12T07:48:35.227Z,2.40
2018-09-12T07:51:03.654Z,2.43
2018-09-12T07:53:32.210Z,2.07
2018-09-12T07:56:00.733Z,2.50
2018-09-12T07:58:29.166Z,2.93
2018-09-12T08:00:57.675Z,2.40
2018-09-12T08:03:26.181Z,2.40
2018-09-12T08:05:54.625Z,2.60
2018-09-12T08:08:23.092Z,2.90
2018-09-12T08:10:51.870Z,2.77
2018-09-12T08:13:20.342Z,2.07
2018-09-12T08:15:48.765Z,2.80
2018-09-12T08:18:17.177Z,2.50
2018-09-12T08:20:45.657Z,2.50
2018-09-12T08:23:14.267Z,3.50
2018-09-12T08:25:42.758Z,2.80
2018-09-12T08:28:11.365Z,2.73
2018-09-12T08:30:39.950Z,3.10
2018-09-12T08:33:08.406Z,2.60
2018-09-12T08:35:37.074Z,2.50
2018-09-12T08:38:05.854Z,3.73
2018-09-12T08:40:34.377Z,2.67
2018-09-12T08:43:02.916Z,3.07
2018-09-12T08:45:31.428Z,2.70
2018-09-12T08:48:00.034Z,2.50
2018-09-12T08:50:28.428Z,2.80
2018-09-12T08:52:56.909Z,3.00
2018-09-12T08:55:25.821Z,3.30
2018-09-12T08:57:54.425Z,2.83
2018-09-12T09:00:27.147Z,3.43
2018-09-12T09:02:55.547Z,3.13
2018-09-12T09:05:23.939Z,3.60
2018-09-12T09:07:52.430Z,3.47
2018-09-12T09:10:20.819Z,3.00
2018-09-12T09:12:49.273Z,3.37
2018-09-12T09:15:17.717Z,2.80
2018-09-12T09:17:46.278Z,3.20
2018-09-12T09:20:14.732Z,3.43
2018-09-12T09:22:43.465Z,3.63
2018-09-12T09:25:12.212Z,3.67
2018-09-12T09:27:41.056Z,4.07
2018-09-12T09:30:10.001Z,4.27
2018-09-12T09:32:38.786Z,3.87
2018-09-12T09:35:07.488Z,4.03
2018-09-12T09:37:36.765Z,3.90
2018-09-12T09:40:05.977Z,3.80
2018-09-12T09:42:34.831Z,4.00
2018-09-12T09:45:03.723Z,3.60
2018-09-12T09:47:32.483Z,3.40
2018-09-12T09:50:01.055Z,3.43
2018-09-12T09:52:29.514Z,3.67
2018-09-12T09:54:58.184Z,3.13
2018-09-12T09:57:26.612Z,4.80
2018-09-12T09:59:55.507Z,3.47
2018-09-12T10:02:29.046Z,2.80
2018-09-12T10:05:07.585Z,2.90
2018-09-12T10:07:56.256Z,2.73
2018-09-12T10:10:24.783Z,3.47
2018-09-12T10:12:53.427Z,3.50
2018-09-12T10:15:21.910Z,2.97
2018-09-12T10:17:50.326Z,3.00
2018-09-12T10:20:18.855Z,3.50
2018-09-12T10:22:47.342Z,2.67
2018-09-12T10:25:15.964Z,2.90
2018-09-12T10:27:44.582Z,2.90
2018-09-12T10:30:13.087Z,3.40
2018-09-12T10:32:41.673Z,3.20
2018-09-12T10:35:10.051Z,3.30
2018-09-12T10:37:38.619Z,3.60
2018-09-12T10:40:07.500Z,3.07
2018-09-12T10:42:36.110Z,2.03
2018-09-12T10:45:04.942Z,3.40
2018-09-12T10:47:33.353Z,2.17
2018-09-12T10:50:02.017Z,2.40
2018-09-12T10:52:30.548Z,2.67
2018-09-12T10:54:59.069Z,2.73
2018-09-12T10:57:27.893Z,3.03
2018-09-12T10:59:56.549Z,3.27
2018-09-12T11:02:25.147Z,2.73
2018-09-12T11:04:53.548Z,2.70
2018-09-12T11:07:22.049Z,3.30
2018-09-12T11:09:50.648Z,3.40
2018-09-12T11:12:19.228Z,3.90
2018-09-12T11:14:47.800Z,4.03
2018-09-12T11:17:16.226Z,2.77
2018-09-12T11:19:44.648Z,3.53
2018-09-12T11:22:13.079Z,4.27
2018-09-12T11:24:41.767Z,7.27
2018-09-12T11:27:10.253Z,5.97
2018-09-12T11:29:38.892Z,4.93
2018-09-12T11:32:07.394Z,3.87
2018-09-12T11:34:35.865Z,4.73
2018-09-12T11:37:04.411Z,4.63
2018-09-12T11:39:32.980Z,4.47
2018-09-12T11:42:01.468Z,4.20
2018-09-12T11:44:29.899Z,4.57
2018-09-12T11:46:58.376Z,3.13
2018-09-12T11:49:26.869Z,3.63
2018-09-12T11:51:55.294Z,4.10
2018-09-12T11:54:23.823Z,2.50
2018-09-12T11:56:52.300Z,3.23
2018-09-12T11:59:20.787Z,4.30
2018-09-12T12:01:49.340Z,6.20
2018-09-12T12:04:17.937Z,5.00
2018-09-12T12:06:46.653Z,4.23
2018-09-12T12:09:15.104Z,3.77
2018-09-12T12:11:43.741Z,4.03
2018-09-12T12:14:12.257Z,2.63
2018-09-12T12:16:40.875Z,2.53
2018-09-12T12:19:09.491Z,2.20
2018-09-12T12:21:38.040Z,2.10
2018-09-12T12:24:06.631Z,2.53
2018-09-12T12:26:35.024Z,2.17
2018-09-12T12:29:03.567Z,3.03
2018-09-12T12:31:32.081Z,2.17
2018-09-12T12:34:00.721Z,1.83
2018-09-12T12:36:29.251Z,1.70
2018-09-12T12:38:57.866Z,2.20
2018-09-12T12:41:26.560Z,2.57
2018-09-12T12:43:55.315Z,2.83
2018-09-12T12:46:24.249Z,1.97
2018-09-12T12:48:52.905Z,2.37
2018-09-12T12:51:21.538Z,2.73
2018-09-12T12:53:50.169Z,2.70
2018-09-12T12:56:18.825Z,2.33
2018-09-12T12:58:47.358Z,1.80
2018-09-12T13:01:15.865Z,2.90
2018-09-12T13:03:45.037Z,3.10
2018-09-12T13:06:13.574Z,2.67
2018-09-12T13:08:42.029Z,2.20
2018-09-12T13:11:10.598Z,1.90
2018-09-12T13:13:39.081Z,2.20
2018-09-12T13:16:07.783Z,3.10
2018-09-12T13:18:36.562Z,2.70
2018-09-12T13:21:05.604Z,2.53
2018-09-12T13:23:34.574Z,3.40
2018-09-12T13:26:03.840Z,2.70
2018-09-12T13:28:32.833Z,3.57
2018-09-12T13:31:01.806Z,3.20
2018-09-12T13:33:31.183Z,1.30
2018-09-12T13:36:00.536Z,1.43
2018-09-12T13:38:29.512Z,1.20
2018-09-12T13:40:58.335Z,1.30
2018-09-12T13:43:29.718Z,1.37
2018-09-12T13:45:58.489Z,0.90
2018-09-12T13:48:27.775Z,1.30
2018-09-12T13:50:56.569Z,1.23
2018-09-12T13:53:25.168Z,1.80
2018-09-12T13:55:54.065Z,1.70
2018-09-12T13:58:22.801Z,1.67
2018-09-12T14:00:51.758Z,1.30
2018-09-12T14:03:20.292Z,1.30
2018-09-12T14:05:48.722Z,1.87
2018-09-12T14:08:17.323Z,2.10
2018-09-12T14:10:46.015Z,2.50
2018-09-12T14:13:14.602Z,2.33
2018-09-12T14:15:43.341Z,2.90
2018-09-12T14:18:11.937Z,2.97
2018-09-12T14:20:40.805Z,3.07
2018-09-12T14:23:09.203Z,3.87
2018-09-12T14:25:37.890Z,2.90
2018-09-12T14:28:06.766Z,3.20
2018-09-12T14:30:35.220Z,3.00
2018-09-12T14:33:03.643Z,2.63
2018-09-12T14:35:32.327Z,2.57
2018-09-12T14:38:00.978Z,2.40
2018-09-12T14:40:31.757Z,2.90
2018-09-12T14:43:00.430Z,2.27
2018-09-12T14:45:29.063Z,2.63
2018-09-12T14:47:57.610Z,2.40
2018-09-12T14:50:26.240Z,2.27
2018-09-12T14:52:54.916Z,2.73
2018-09-12T14:55:23.702Z,2.80
2018-09-12T14:57:52.462Z,2.50
2018-09-12T15:00:28.702Z,3.20
2018-09-12T15:02:59.267Z,2.53
2018-09-12T15:05:27.925Z,2.40
2018-09-12T15:07:57.724Z,1.90
2018-09-12T15:10:27.224Z,2.73
2018-09-12T15:12:56.430Z,2.20
2018-09-12T15:15:25.069Z,2.20
2018-09-12T15:17:53.783Z,3.23
2018-09-12T15:20:23.269Z,2.33
2018-09-12T15:22:53.012Z,2.20
2018-09-12T15:25:22.013Z,1.50
2018-09-12T15:27:51.653Z,1.60
2018-09-12T15:30:21.175Z,2.10
2018-09-12T15:32:50.288Z,1.90
2018-09-12T15:35:19.199Z,1.47
2018-09-12T15:37:48.262Z,1.60
2018-09-12T15:40:17.975Z,2.00
2018-09-12T15:42:47.195Z,2.93
2018-09-12T15:45:16.623Z,2.27
2018-09-12T15:47:45.801Z,1.80
2018-09-12T15:50:14.546Z,1.70
2018-09-12T15:52:43.050Z,3.37
2018-09-12T15:55:11.589Z,1.40
2018-09-12T15:57:40.227Z,1.80
2018-09-12T16:00:09.054Z,3.10
2018-09-12T16:02:37.573Z,2.03
2018-09-12T16:05:06.708Z,1.70
2018-09-12T16:07:36.713Z,2.10
2018-09-12T16:10:06.402Z,2.00
2018-09-12T16:12:35.086Z,1.97
2018-09-12T16:15:03.955Z,1.83
2018-09-12T16:17:32.683Z,2.47
2018-09-12T16:20:01.580Z,2.53
2018-09-12T16:22:31.224Z,3.00
2018-09-12T16:25:00.215Z,5.73
2018-09-12T16:27:29.253Z,5.07
2018-09-12T16:29:58.338Z,3.30
2018-09-12T16:32:28.121Z,2.30
2018-09-12T16:34:57.830Z,2.70
2018-09-12T16:37:26.534Z,3.70
2018-09-12T16:39:56.658Z,4.00
2018-09-12T16:42:25.180Z,4.73
2018-09-12T16:44:54.127Z,2.97
2018-09-12T16:47:23.332Z,2.60
2018-09-12T16:49:52.413Z,1.90
2018-09-12T16:52:21.471Z,3.10
2018-09-12T16:54:51.608Z,3.70
2018-09-12T16:57:20.679Z,3.57
2018-09-12T16:59:49.750Z,8.10
2018-09-12T17:02:19.642Z,5.43
2018-09-12T17:04:49.297Z,6.20
2018-09-12T17:07:18.951Z,8.73
2018-09-12T17:09:48.473Z,8.70
2018-09-12T17:12:18.044Z,6.93
2018-09-12T17:14:47.381Z,6.40
2018-09-12T17:17:16.729Z,5.27
2018-09-12T17:19:52.194Z,3.90
2018-09-12T17:22:25.347Z,10.70
2018-09-12T17:24:57.641Z,6.47
2018-09-12T17:27:27.489Z,5.03
2018-09-12T17:29:57.019Z,3.77
2018-09-12T17:32:25.766Z,4.07
2018-09-12T17:34:54.573Z,3.30
2018-09-12T17:37:23.269Z,2.90
2018-09-12T17:39:52.173Z,6.03
2018-09-12T17:42:21.177Z,5.30
2018-09-12T17:44:53.249Z,6.40
2018-09-12T17:47:24.860Z,5.73
2018-09-12T17:49:53.859Z,5.70
2018-09-12T17:52:22.822Z,3.50
2018-09-12T17:54:52.486Z,3.80
2018-09-12T17:57:21.484Z,4.20
2018-09-12T17:59:50.438Z,3.00
2018-09-12T18:02:19.220Z,2.73
2018-09-12T18:04:48.302Z,3.90
2018-09-12T18:07:17.776Z,3.30
2018-09-12T18:09:46.949Z,3.13
2018-09-12T18:12:16.706Z,2.77
2018-09-12T18:14:46.206Z,3.23
2018-09-12T18:17:15.747Z,2.80
2018-09-12T18:19:45.232Z,2.83
2018-09-12T18:22:14.908Z,2.63
2018-09-12T18:24:44.743Z,3.13
2018-09-12T18:27:14.753Z,3.30
2018-09-12T18:29:44.536Z,2.63
2018-09-12T18:32:14.675Z,5.97
2018-09-12T18:34:44.503Z,3.07
2018-09-12T18:37:13.897Z,4.20
2018-09-12T18:39:43.456Z,3.53
2018-09-12T18:42:12.751Z,2.70
2018-09-12T18:44:42.675Z,3.17
2018-09-12T18:47:12.101Z,2.73
2018-09-12T18:49:41.415Z,2.33
2018-09-12T18:52:13.285Z,2.50
2018-09-12T18:54:44.777Z,2.60
2018-09-12T18:57:15.466Z,3.20
2018-09-12T18:59:44.981Z,2.70
2018-09-12T19:02:14.600Z,4.33
2018-09-12T19:04:44.567Z,3.40
2018-09-12T19:07:14.115Z,2.90
2018-09-12T19:09:42.932Z,3.57
2018-09-12T19:12:12.427Z,3.03
2018-09-12T19:14:43.618Z,3.43
2018-09-12T19:17:15.831Z,2.80
2018-09-12T19:19:47.411Z,2.90
2018-09-12T19:22:20.239Z,2.43
2018-09-12T19:24:50.639Z,2.60
2018-09-12T19:27:20.333Z,3.83
2018-09-12T19:29:50.231Z,4.30
2018-09-12T19:32:19.684Z,2.73
2018-09-12T19:34:49.197Z,2.93
2018-09-12T19:37:18.994Z,2.93
2018-09-12T19:39:50.068Z,2.83
2018-09-12T19:42:25.143Z,2.43
2018-09-12T19:44:56.083Z,2.93
2018-09-12T19:47:32.303Z,2.77
2018-09-12T19:50:07.320Z,2.60
2018-09-12T19:52:40.258Z,2.33
2018-09-12T19:55:09.477Z,4.40
2018-09-12T19:57:38.482Z,2.90
2018-09-12T20:00:14.184Z,3.10
2018-09-12T20:02:43.077Z,2.50
2018-09-12T20:05:12.273Z,2.00
2018-09-12T20:07:41.033Z,1.93
2018-09-12T20:10:09.834Z,1.97
2018-09-12T20:12:39.537Z,1.93
2018-09-12T20:15:09.761Z,1.70
2018-09-12T20:17:39.543Z,2.40
2018-09-12T20:20:08.986Z,2.33
2018-09-12T20:22:38.209Z,2.60
2018-09-12T20:25:07.668Z,2.23
2018-09-12T20:27:36.500Z,2.40
2018-09-12T20:30:05.932Z,2.10
2018-09-12T20:32:35.386Z,2.47
2018-09-12T20:35:05.195Z,2.33
2018-09-12T20:37:35.093Z,2.60
2018-09-12T20:40:04.716Z,2.77
2018-09-12T20:42:34.544Z,2.27
2018-09-12T20:45:03.945Z,2.13
2018-09-12T20:47:33.534Z,1.77
2018-09-12T20:52:52.468Z,2.23
2018-09-12T20:55:22.235Z,1.97
2018-09-12T20:57:52.231Z,2.83
2018-09-12T21:00:21.177Z,3.03
2018-09-12T21:02:49.957Z,2.43
2018-09-12T21:05:19.367Z,2.50
2018-09-12T21:07:49.636Z,2.40
2018-09-12T21:10:19.943Z,2.10
2018-09-12T21:12:49.094Z,2.40
2018-09-12T21:15:17.707Z,2.70
2018-09-12T21:17:46.557Z,2.43
2018-09-12T21:20:15.236Z,2.77
2018-09-12T21:22:44.985Z,4.67
2018-09-12T21:25:13.531Z,2.53
2018-09-12T21:27:42.054Z,2.37
2018-09-12T21:30:10.638Z,2.23
2018-09-12T21:32:39.193Z,1.80
2018-09-12T21:35:07.730Z,2.53
2018-09-12T21:37:36.431Z,2.20
2018-09-12T21:40:05.271Z,2.93
2018-09-12T21:42:33.960Z,2.47
2018-09-12T21:45:02.670Z,2.73
2018-09-12T21:47:31.398Z,3.27
2018-09-12T21:50:00.221Z,2.60
2018-09-12T21:52:29.939Z,2.77
2018-09-12T21:54:58.548Z,3.03
2018-09-12T21:57:27.262Z,2.93
2018-09-12T22:00:01.490Z,3.07
2018-09-12T22:02:30.110Z,2.90
2018-09-12T22:04:58.652Z,2.60
2018-09-12T22:07:27.446Z,3.30
2018-09-12T22:09:55.967Z,3.03
2018-09-12T22:12:24.558Z,3.00
2018-09-12T22:14:53.136Z,2.40
2018-09-12T22:17:21.761Z,2.87
2018-09-12T22:19:50.443Z,2.90
2018-09-12T22:22:19.042Z,2.70
2018-09-12T22:24:48.366Z,2.90
2018-09-12T22:27:18.618Z,2.53
2018-09-12T22:29:47.329Z,2.70
2018-09-12T22:32:16.982Z,3.30
2018-09-12T22:34:46.348Z,2.93
2018-09-12T22:37:15.731Z,3.40
2018-09-12T22:39:44.283Z,2.57
2018-09-12T22:42:13.446Z,3.20
2018-09-12T22:44:41.930Z,3.10
2018-09-12T22:47:11.191Z,3.17
2018-09-12T22:49:39.604Z,3.03
2018-09-12T22:52:08.307Z,2.77
2018-09-12T22:54:38.072Z,3.43
2018-09-12T22:57:06.468Z,3.13
2018-09-12T22:59:34.915Z,3.50
2018-09-12T23:02:03.407Z,3.10
2018-09-12T23:04:31.863Z,3.23
2018-09-12T23:07:00.332Z,3.60
2018-09-12T23:09:28.754Z,3.60
2018-09-12T23:11:57.276Z,3.37
2018-09-12T23:14:25.711Z,3.90
2018-09-12T23:16:54.311Z,3.87
2018-09-12T23:19:22.778Z,3.60
2018-09-12T23:21:51.432Z,3.43
2018-09-12T23:24:19.821Z,3.43
2018-09-12T23:26:49.296Z,3.50
2018-09-12T23:29:17.766Z,3.50
2018-09-12T23:31:46.298Z,3.87
2018-09-12T23:34:14.796Z,3.87
2018-09-12T23:36:43.294Z,3.23
2018-09-12T23:39:13.771Z,3.73
2018-09-12T23:41:42.902Z,3.43
2018-09-12T23:44:11.659Z,4.27
2018-09-12T23:46:40.112Z,3.80
2018-09-12T23:49:09.150Z,4.13
2018-09-12T23:51:37.870Z,3.87
2018-09-12T23:54:06.639Z,3.63
2018-09-12T23:56:35.165Z,3.83
2018-09-12T23:59:03.725Z,3.73
